• Join FlightAware (Why Join?)
  • Login
  • US Flag 
02:24AM EST


 

Airport Tracker/Info


-or-


 

Live Flight TrackerFlight Track Log ✈ SWA3294 ✈ 19-Jul-2014 ✈ KBOS - KSTL

Flight Track Log - Related Links

Times and Time Zones

All times are in EDT time to prevent confusion due to time zone crossing. See the SWA3294 flight status page for this flight to view local times or setup timezone preferences in your user account.

Time Position Orientation Groundspeed Altitude Reporting Facility
EDT Latitude Longitude Course Direction KTS MPH feet Rate Location/Type
04:08PM 42.3667 -70.9833 84° East 156 180 800  Level KA90
04:09PM 42.3700 -70.9417 84° East 158 182 2,100 2,510 Climbing Boston Center
04:10PM 42.3831 -70.8600 78° East 216 249 4,900 3,000 Climbing Boston Center
04:11PM 42.3800 -70.7539 92° East 271 312 8,300 2,903 Climbing Boston Center
04:12PM 42.3047 -70.7244 164° South 290 334 10,900 2,950 Climbing Boston Center
04:13PM 42.2314 -70.7944 215° Southwest 337 388 14,200 3,290 Climbing Boston Center
04:14PM 42.2097 -70.9169 257° West 332 382 17,700 2,806 Climbing Boston Center
04:15PM 42.2075 -71.0386 269° West 337 388 20,000 2,182 Climbing Boston Center
04:16PM 42.2039 -71.1722 268° West 355 409 22,100 2,081 Climbing Boston Center
04:17PM 42.2017 -71.3186 269° West 366 421 24,300 1,597 Climbing Boston Center
04:18PM 42.1986 -71.4625 268° West 382 440 25,400 1,377 Climbing Boston Center
04:19PM 42.1942 -71.6164 268° West 406 467 27,100 1,525 Climbing Boston Center
04:20PM 42.1908 -71.7728 268° West 413 475 28,500 1,426 Climbing Boston Center
04:21PM 42.1864 -71.9333 268° West 426 490 30,000 1,742 Climbing Boston Center
04:22PM 42.1486 -72.1169 255° West 424 488 32,100 1,790 Climbing Boston Center
04:23PM 42.1078 -72.2642 250° West 422 486 33,700 1,918 Climbing Boston Center
04:24PM 42.0681 -72.4069 249° West 411 473 36,000 1,967 Climbing Boston Center
04:25PM 42.0311 -72.5408 250° West 385 443 37,700 984 Climbing Boston Center
04:26PM 41.9833 -72.6656 243° Southwest 378 435 38,000 148 Climbing Boston Center
04:27PM 41.9339 -72.7892 242° Southwest 377 434 38,000  Level Boston Center
04:28PM 41.8833 -72.9136 241° Southwest 378 435 38,000  Level Boston Center
04:29PM 41.8342 -73.0383 242° Southwest 377 434 38,000  Level Boston Center
04:30PM 41.7839 -73.1622 241° Southwest 377 434 38,000  Level Boston Center
04:31PM 41.7339 -73.2872 242° Southwest 378 435 38,000  Level Boston Center
04:32PM 41.6831 -73.4108 241° Southwest 378 435 38,000  Level Boston Center
04:33PM 41.6222 -73.5606 242° Southwest 379 436 38,000  Level Boston Center
04:34PM 41.5714 -73.6850 241° Southwest 379 436 38,000 298 Level Boston Center
04:35PM 41.5219 -73.8025 241° Southwest 380 437 38,600 823 Climbing Boston Center
04:36PM 41.4697 -73.9275 241° Southwest 386 444 39,700 683 Climbing Boston Center
04:37PM 41.4206 -74.0478 241° Southwest 379 436 40,000 149 Climbing Boston Center
04:38PM 41.4039 -74.1872 261° West 388 447 40,000  Level Boston Center
04:40PM 41.3772 -74.5144 264° West 393 452 40,000  Level New York Center
04:41PM 41.3561 -74.6542 259° West 393 452 40,000  Level New York Center
04:42PM 41.3533 -74.7978 269° West 388 447 40,000  Level New York Center
04:43PM 41.3419 -74.9408 264° West 388 447 40,000  Level New York Center
04:44PM 41.3306 -75.0894 264° West 393 452 40,000  Level New York Center
04:45PM 41.3169 -75.2319 263° West 398 458 40,000  Level New York Center
04:46PM 41.3050 -75.3806 264° West 398 458 40,000  Level New York Center
04:47PM 41.2931 -75.5206 264° West 398 458 40,000  Level New York Center
04:48PM 41.2811 -75.6658 264° West 405 466 40,000  Level New York Center
04:49PM 41.2686 -75.8142 264° West 405 466 40,000  Level New York Center
04:50PM 41.2519 -75.9536 261° West 400 460 40,000  Level New York Center
04:51PM 41.2375 -76.0958 262° West 400 460 40,000  Level New York Center
04:52PM 41.2222 -76.2492 263° West 406 467 40,000  Level New York Center
04:53PM 41.2089 -76.4000 263° West 416 479 40,000  Level New York Center
04:54PM 41.1956 -76.5478 263° West 416 479 40,000  Level New York Center
04:55PM 41.1842 -76.6928 264° West 416 479 40,000  Level New York Center
04:56PM 41.1703 -76.8406 263° West 405 466 40,000  Level New York Center
04:57PM 41.1564 -76.9881 263° West 405 466 40,000  Level New York Center
04:58PM 41.1403 -77.1356 262° West 405 466 40,000  Level New York Center
04:59PM 41.1264 -77.2803 263° West 405 466 40,000  Level New York Center
05:01PM 41.1008 -77.5117 262° West 408 470 40,000  Level Cleveland Center
05:02PM 41.0836 -77.6892 263° West 408 470 40,000  Level Cleveland Center
05:03PM 41.0672 -77.8353 262° West 408 470 40,000  Level Cleveland Center
05:04PM 41.0517 -77.9844 262° West 409 471 40,000  Level Cleveland Center
05:05PM 41.0358 -78.1325 262° West 410 472 40,000  Level Cleveland Center
05:06PM 41.0200 -78.2728 262° West 412 474 40,000  Level Cleveland Center
05:07PM 40.9994 -78.4503 261° West 410 472 40,000  Level Cleveland Center
05:08PM 40.9842 -78.6014 262° West 426 490 40,000  Level Cleveland Center
05:09PM 40.9650 -78.7511 260° West 418 481 40,000  Level Cleveland Center
05:10PM 40.9483 -78.9000 262° West 415 478 40,000  Level Cleveland Center
05:11PM 40.9303 -79.0500 261° West 414 476 40,000  Level Cleveland Center
05:12PM 40.9128 -79.1997 261° West 414 476 40,000  Level Cleveland Center
05:13PM 40.8953 -79.3497 261° West 415 478 40,000  Level Cleveland Center
05:14PM 40.8731 -79.5300 261° West 415 478 40,000  Level Cleveland Center
05:15PM 40.8539 -79.6786 260° West 414 476 40,000  Level Cleveland Center
05:16PM 40.8364 -79.8294 261° West 416 479 40,000  Level Cleveland Center
05:17PM 40.8172 -79.9789 260° West 416 479 40,000  Level Cleveland Center
05:19PM 40.7967 -80.1453 261° West 416 479 40,000  Level Cleveland Center
05:20PM 40.7775 -80.2944 260° West 416 479 40,000  Level Cleveland Center
05:21PM 40.7589 -80.4333 260° West 416 479 40,000  Level Cleveland Center
05:22PM 40.7392 -80.5828 260° West 412 474 40,000  Level Cleveland Center
05:23PM 40.7161 -80.7486 260° West 413 475 40,000  Level Cleveland Center
05:24PM 40.6969 -80.8961 260° West 411 473 40,000  Level Cleveland Center
05:25PM 40.6742 -81.0592 260° West 415 478 40,000  Level Cleveland Center
05:26PM 40.6517 -81.2114 259° West 418 481 40,000  Level Cleveland Center
05:27PM 40.6317 -81.3619 260° West 417 480 40,000  Level Cleveland Center
05:28PM 40.6097 -81.5136 259° West 417 480 40,000  Level Cleveland Center
05:29PM 40.5886 -81.6667 260° West 418 481 40,000  Level Cleveland Center
05:30PM 40.5669 -81.8189 259° West 418 481 40,000  Level Cleveland Center
05:31PM 40.5442 -81.9728 259° West 421 484 40,000  Level Cleveland Center
05:32PM 40.5222 -82.1258 259° West 421 484 40,000  Level Cleveland Center
05:33PM 40.4992 -82.2783 259° West 421 484 40,000  Level Cleveland Center
05:34PM 40.4728 -82.4544 259° West 420 483 40,000  Level Cleveland Center
05:35PM 40.4536 -82.5869 259° West 419 482 40,000  Level Cleveland Center
05:36PM 40.4314 -82.7353 259° West 418 481 40,000  Level Cleveland Center
05:37PM 40.4042 -82.9125 259° West 417 480 40,000  Level Cleveland Center
05:38PM 40.3808 -83.0589 258° West 416 479 40,000  Level Cleveland Center
05:39PM 40.3581 -83.2083 259° West 417 480 40,000  Level Cleveland Center
05:40PM 40.3347 -83.3575 258° West 419 482 40,000  Level Cleveland Center
05:41PM 40.3117 -83.5069 259° West 420 483 40,000  Level Cleveland Center
05:42PM 40.2867 -83.6544 258° West 420 483 40,000  Level Cleveland Center
05:43PM 40.2581 -83.8325 258° West 420 483 40,000  Level Cleveland Center
05:44PM 40.2342 -83.9808 258° West 420 483 40,000  Level Cleveland Center
05:46PM 40.1994 -84.1867 258° West 419 482 40,000  Level Indianapolis Center
05:47PM 40.1750 -84.3331 258° West 418 481 40,000  Level Indianapolis Center
05:48PM 40.1503 -84.4797 258° West 418 481 40,000  Level Indianapolis Center
05:49PM 40.1253 -84.6278 258° West 418 481 40,000  Level Indianapolis Center
05:50PM 40.1000 -84.7750 257° West 418 481 40,000  Level Indianapolis Center
05:51PM 40.0731 -84.9356 258° West 418 481 40,000  Level Indianapolis Center
05:52PM 40.0458 -85.0836 257° West 418 481 40,000  Level Indianapolis Center
05:53PM 40.0208 -85.2314 258° West 418 481 40,000  Level Indianapolis Center
05:54PM 39.9944 -85.3778 257° West 418 481 40,000  Level Indianapolis Center
05:55PM 39.9694 -85.5244 258° West 418 481 40,000  Level Indianapolis Center
05:56PM 39.9372 -85.7025 257° West 419 482 40,000  Level Indianapolis Center
05:57PM 39.9103 -85.8525 257° West 425 489 40,000  Level Indianapolis Center
05:58PM 39.8822 -86.0028 256° West 425 489 40,000  Level Indianapolis Center
05:59PM 39.8550 -86.1525 257° West 426 490 40,000  Level Indianapolis Center
06:00PM 39.8264 -86.3094 257° West 428 493 40,000  Level Indianapolis Center
06:01PM 39.7911 -86.4742 254° West 429 494 40,000  Level Indianapolis Center
06:02PM 39.7542 -86.6167 251° West 427 491 40,000 -49 Level Indianapolis Center
06:03PM 39.7183 -86.7606 252° West 424 488 39,900 -532 Descending Indianapolis Center
06:04PM 39.6822 -86.9056 252° West 424 488 38,900 -927 Descending Indianapolis Center
06:05PM 39.6461 -87.0517 252° West 424 488 38,000 -878 Descending Indianapolis Center
06:06PM 39.6094 -87.1958 252° West 424 488 37,100 -968 Descending Indianapolis Center
06:07PM 39.5661 -87.3675 252° West 423 487 36,000 -537 Descending Indianapolis Center
06:08PM 39.5286 -87.5119 251° West 423 487 36,000 -98 Level Indianapolis Center
06:09PM 39.4925 -87.6536 252° West 422 486 35,800 -871 Descending Indianapolis Center
06:10PM 39.4558 -87.7964 252° West 420 483 34,200 -2,098 Descending Indianapolis Center
06:11PM 39.4183 -87.9417 252° West 422 486 31,500 -2,049 Descending Indianapolis Center
06:12PM 39.3817 -88.0833 252° West 422 486 30,000 -918 Descending Indianapolis Center
06:13PM 39.3542 -88.1883 251° West 420 483 30,000  Level Kansas City Center
06:14PM 39.3175 -88.3289 251° West 418 481 30,000  Level Kansas City Center
06:15PM 39.2800 -88.4703 251° West 417 480 30,000  Level Kansas City Center
06:16PM 39.2433 -88.6017 250° West 417 480 30,000  Level Kansas City Center
06:17PM 39.2056 -88.7436 251° West 417 480 30,000 -816 Level Kansas City Center
06:18PM 39.1681 -88.8828 251° West 417 480 28,300 -2,016 Descending Kansas City Center
06:19PM 39.1297 -89.0319 252° West 402 463 25,900 -2,164 Descending Kansas City Center
06:20PM 39.0933 -89.1636 250° West 394 453 23,900 -2,129 Descending Kansas City Center
06:21PM 39.0583 -89.3131 253° West 380 437 21,500 -2,226 Descending Kansas City Center
06:22PM 39.0283 -89.4453 254° West 382 440 19,300 -1,984 Descending Kansas City Center
06:23PM 38.9986 -89.5728 253° West 378 435 17,400 -1,984 Descending Kansas City Center
06:24PM 38.9647 -89.6900 250° West 355 409 15,200 -1,820 Descending Kansas City Center
06:25PM 38.9269 -89.8217 250° West 357 411 13,700 -1,721 Descending Kansas City Center
06:26PM 38.8914 -89.9275 247° West 331 381 11,700 -1,694 Descending Kansas City Center
06:27PM 38.8564 -90.0342 247° West 329 379 10,200 -1,152 Descending Kansas City Center
06:28PM 38.8267 -90.1294 248° West 293 337 9,300 -1,073 Descending Kansas City Center
06:29PM 38.8006 -90.2200 250° West 280 322 8,000 -1,113 Descending Kansas City Center
06:30PM 38.8336 -90.2994 298° West 264 304 7,000 -1,056 Descending Kansas City Center
06:31PM 38.8683 -90.3761 300° West 256 295 5,800 -1,426 Descending Kansas City Center
06:32PM 38.9097 -90.4692 300° West 266 306 4,100 -942 Descending Kansas City Center
06:33PM 38.8772 -90.5314 236° Southwest 235 270 3,900 -581 Descending Kansas City Center
06:34PM 38.8272 -90.5197 170° South 224 258 2,900 -864 Descending Kansas City Center
06:35PM 38.7972 -90.4675 126° Southeast 187 215 2,100 -780 Descending Kansas City Center
06:37PM 38.7728 -90.4183 123° Southeast 164 189 1,300 -780 Descending Kansas City Center
06:38PM 38.7514 -90.3731 121° Southeast 153 176 500 -774 Descending Kansas City Center